aviador You're here:

KFBG Decoded Metar

FORT BRAGG/SIMMO in NC, USA
Report Time2018-07-18 22:56:00
UTC Time2018-07-18 23:44:31
Flight Rules vfr VFR
Wind060° at 06 kt
W.Decomp.*RWY 09: 5.5 kt HW 2.3 kt LCW
W.Rank060° ranks 16
Current wind is above 060° avg. (5.8)
Visibility9999 m
Phenomena:N/A
Clouds:N/A
Expected CloudBase > 5,200 ft AGL from Temp-Dew spread
CeilingNone
Temp30°C (ISA +15)
Dew Point17°C (46% RH)
Heat Index30.5°C
QNH1013 hPa
Density Alt2,277 ft
Elevation243 ft
Report Wrong Elevation
Raw Report
KFBG 182256Z AUTO 06006KT 10SM CLR 30/17 A2992 RMK AO2 SLP132
T03040174 $=

Extra information for KFBG:More info

Metar Taf Metar & Taf Last 4 Metars F.Rules Stats Wind Profile Meteogram Temp Stats Airport Information Weather charts Add Link Nearby VenuesMetar ALERT Operation Metar Decoded Social comments

AIRNAV info for KFBG